Time;durP1;ratioP1;P1;durP2;ratioP2;P2;SDS_P1;SDS_P2;PMS_P1;PMS_P2;Temp;Humidity;BMP_temperature;BMP_pressure;BME280_temperature;BME280_humidity;BME280_pressure;Samples;Min_cycle;Max_cycle;Signal;HPM_P1;HPM_P2
2021/01/04 00:02:10;;;;;;;113.72;39.63;;;;;;;9.30;74.90;99873.03;5034830;28;20100;-79
2021/01/04 00:04:56;;;;;;;131.77;42.58;;;;;;;9.27;75.14;99862.00;5034962;28;20029;-80
2021/01/04 00:08:03;;;;;;;130.23;42.90;;;;;;;8.71;75.08;99774.75;5034940;28;20068;-80
2021/01/04 00:10:50;;;;;;;91.50;37.20;;;;;;;9.29;74.86;99860.84;5035053;28;20025;-80
2021/01/04 00:13:24;;;;;;;112.90;39.17;;;;;;;9.31;75.24;99860.69;5034415;28;20025;-80
2021/01/04 00:16:07;;;;;;;93.00;35.70;;;;;;;8.84;74.87;99775.13;5034200;28;20091;-79
2021/01/04 00:18:51;;;;;;;118.28;39.63;;;;;;;9.34;74.76;99855.91;5034870;28;20033;-81
2021/01/04 00:21:37;;;;;;;118.93;41.78;;;;;;;8.76;75.41;99775.09;5033550;28;20026;-81
2021/01/04 00:24:39;;;;;;;126.40;44.03;;;;;;;9.32;75.20;99852.63;5034499;28;20051;-80
2021/01/04 00:27:29;;;;;;;116.88;42.10;;;;;;;9.22;75.12;99830.88;5034510;28;20026;-81
2021/01/04 00:29:58;;;;;;;106.68;41.35;;;;;;;9.30;75.09;99840.59;5033788;28;20336;-80
2021/01/04 00:32:33;;;;;;;112.22;42.67;;;;;;;9.34;75.51;99850.66;5033494;28;20025;-82
2021/01/04 00:35:20;;;;;;;118.50;40.97;;;;;;;9.33;75.49;99856.91;5034359;28;20092;-79
2021/01/04 00:38:22;;;;;;;123.25;45.95;;;;;;;9.31;75.72;99853.59;5034657;28;20022;-80
2021/01/04 00:40:56;;;;;;;113.57;45.35;;;;;;;9.30;75.50;99844.06;5034509;28;20052;-81
2021/01/04 00:43:44;;;;;;;191.50;49.08;;;;;;;9.02;75.28;99796.09;5034384;28;20387;-81
2021/01/04 00:46:12;;;;;;;116.30;44.22;;;;;;;8.73;75.30;99741.22;5033430;28;20048;-79
2021/01/04 00:48:59;;;;;;;132.82;44.88;;;;;;;9.16;75.63;99815.72;5034487;28;20049;-81
2021/01/04 00:51:53;;;;;;;119.90;41.72;;;;;;;9.35;75.10;99844.38;5034517;28;20025;-78
2021/01/04 00:54:48;;;;;;;147.13;46.10;;;;;;;9.14;75.69;99810.59;5031898;28;20432;-79
2021/01/04 00:57:22;;;;;;;117.65;41.13;;;;;;;9.31;75.56;99839.59;5028814;28;20033;-81
2021/01/04 01:00:04;;;;;;;125.18;42.08;;;;;;;8.49;75.65;99704.31;5033283;28;20025;-82
2021/01/04 01:03:19;;;;;;;131.82;40.08;;;;;;;9.11;76.07;99810.94;5034464;28;20022;-81
2021/01/04 01:05:44;;;;;;;143.90;40.00;;;;;;;9.28;75.58;99824.13;5033807;28;20049;-80
2021/01/04 01:08:21;;;;;;;154.23;47.33;;;;;;;9.29;75.68;99831.88;5033169;28;20033;-80
2021/01/04 01:11:01;;;;;;;125.07;41.45;;;;;;;9.16;75.83;99813.91;5034448;28;20355;-81
2021/01/04 01:13:29;;;;;;;144.73;40.35;;;;;;;9.29;75.67;99817.88;5034339;28;20029;-80
2021/01/04 01:16:07;;;;;;;119.95;42.03;;;;;;;9.28;76.00;99822.31;5033095;28;20117;-81
2021/01/04 01:18:39;;;;;;;147.57;41.72;;;;;;;9.29;76.22;99847.66;5034222;28;20053;-81
2021/01/04 01:21:09;;;;;;;122.13;42.25;;;;;;;9.29;75.68;99829.22;5033869;28;20025;-81
2021/01/04 01:23:38;;;;;;;140.25;43.10;;;;;;;9.29;76.06;99823.97;5034083;28;20041;-80
2021/01/04 01:26:25;;;;;;;138.55;40.53;;;;;;;9.30;75.91;99811.59;5034767;28;20029;-82
2021/01/04 01:29:19;;;;;;;158.43;41.47;;;;;;;9.31;76.35;99795.63;5037910;28;20025;-82
2021/01/04 01:32:03;;;;;;;128.60;40.15;;;;;;;8.72;75.88;99684.28;5037663;28;20025;-82
2021/01/04 01:34:42;;;;;;;108.55;38.42;;;;;;;9.08;75.90;99741.94;5037941;28;20056;-81
2021/01/04 01:37:14;;;;;;;142.13;46.28;;;;;;;9.32;75.78;99781.47;5036395;28;20037;-81
2021/01/04 01:40:07;;;;;;;149.65;40.13;;;;;;;9.32;76.24;99775.38;5037560;28;20021;-81
2021/01/04 01:43:03;;;;;;;104.47;36.33;;;;;;;9.32;75.97;99773.56;5037468;28;20560;-79
2021/01/04 01:45:40;;;;;;;92.85;36.10;;;;;;;8.97;76.05;99722.03;5037546;28;20057;-82
2021/01/04 01:48:11;;;;;;;83.72;37.90;;;;;;;9.28;76.20;99769.63;5037418;28;20090;-79
2021/01/04 01:50:58;;;;;;;105.25;39.45;;;;;;;9.30;76.26;99777.34;5036244;28;20029;-80
2021/01/04 01:53:44;;;;;;;95.40;39.15;;;;;;;9.20;76.29;99780.16;5037463;28;20033;-81
2021/01/04 01:56:33;;;;;;;122.13;39.72;;;;;;;9.24;76.38;99761.22;5037142;28;20029;-81
2021/01/04 01:59:19;;;;;;;106.07;41.72;;;;;;;9.24;76.16;99755.13;5036684;28;20037;-81
2021/01/04 02:01:57;;;;;;;113.18;40.80;;;;;;;9.24;76.37;99744.59;5037204;28;20490;-80
2021/01/04 02:04:57;;;;;;;100.40;39.53;;;;;;;9.25;76.31;99738.31;5037268;28;20032;-81
2021/01/04 02:07:57;;;;;;;101.88;40.97;;;;;;;9.22;76.47;99759.72;5036011;28;20113;-81
2021/01/04 02:10:29;;;;;;;81.75;32.53;;;;;;;9.23;76.19;99754.31;5035653;28;20037;-81
2021/01/04 02:13:04;;;;;;;85.80;35.17;;;;;;;8.77;76.05;99681.97;5035942;28;20026;-80
2021/01/04 02:15:48;;;;;;;73.60;33.40;;;;;;;9.24;75.75;99750.69;5035827;28;20022;-81
2021/01/04 02:18:28;;;;;;;72.78;34.50;;;;;;;9.18;76.03;99737.34;5036781;28;20372;-79
2021/01/04 02:21:21;;;;;;;82.90;34.50;;;;;;;9.15;75.94;99745.56;5035734;28;20037;-79
2021/01/04 02:24:24;;;;;;;83.03;36.08;;;;;;;9.16;76.18;99737.50;5035650;28;20036;-80
2021/01/04 02:27:00;;;;;;;80.82;34.13;;;;;;;8.94;76.24;99713.63;5036945;28;20021;-78
2021/01/04 02:29:26;;;;;;;88.53;35.38;;;;;;;8.29;76.35;99615.09;5035532;28;20060;-78
2021/01/04 02:31:56;;;;;;;81.57;34.13;;;;;;;8.73;75.96;99685.94;5035526;28;20033;-80
2021/01/04 02:34:27;;;;;;;84.57;33.72;;;;;;;8.41;76.05;99630.63;5036464;28;20108;-80
2021/01/04 02:36:55;;;;;;;89.00;36.55;;;;;;;8.33;76.16;99631.44;5035559;28;20185;-79
2021/01/04 02:39:41;;;;;;;88.13;35.35;;;;;;;8.78;76.25;99706.50;5036364;28;20045;-80
2021/01/04 02:42:17;;;;;;;100.45;37.85;;;;;;;9.10;75.77;99729.44;5035119;28;20463;-78
2021/01/04 02:44:44;;;;;;;67.05;31.17;;;;;;;8.78;76.42;99673.09;5036313;28;20459;-79
2021/01/04 02:47:51;;;;;;;80.70;33.20;;;;;;;9.06;76.28;99701.78;5036149;28;20025;-78
2021/01/04 02:50:28;;;;;;;86.03;34.30;;;;;;;9.03;76.07;99704.75;5036464;28;20309;-78
2021/01/04 02:53:20;;;;;;;76.85;31.60;;;;;;;9.01;76.14;99709.34;5036273;28;20432;-78
2021/01/04 02:56:04;;;;;;;;;;;;;;;8.94;76.75;99703.09;5036415;28;20029;-76
2021/01/04 02:58:56;;;;;;;89.60;32.30;;;;;;;8.79;76.26;99679.19;5035075;28;19916;-78
2021/01/04 03:01:50;;;;;;;91.40;34.00;;;;;;;8.73;76.55;99666.69;5034851;28;20128;-78
2021/01/04 03:04:18;;;;;;;79.35;29.98;;;;;;;9.02;76.56;99711.00;5035570;28;20462;-77
2021/01/04 03:07:00;;;;;;;102.43;33.22;;;;;;;8.71;76.40;99666.00;5036040;28;20079;-79
2021/01/04 03:09:27;;;;;;;;;;;;;;;8.93;76.64;99709.34;5035334;28;20029;-79
2021/01/04 03:11:53;;;;;;;83.78;32.45;;;;;;;8.56;76.17;99634.25;5035790;28;19913;-78
2021/01/04 03:14:46;;;;;;;84.80;30.65;;;;;;;9.00;76.65;99690.09;5035639;28;20029;-79
2021/01/04 03:17:39;;;;;;;108.55;34.00;;;;;;;9.04;76.35;99693.22;5034545;28;20087;-77
2021/01/04 03:20:09;;;;;;;81.28;31.65;;;;;;;8.71;76.51;99642.31;5034480;28;20440;-79
2021/01/04 03:22:36;;;;;;;99.65;37.65;;;;;;;8.79;76.24;99658.94;5035654;28;20033;-80
2021/01/04 03:25:12;;;;;;;94.28;34.88;;;;;;;8.48;76.51;99602.66;5035230;28;20034;-79
2021/01/04 03:27:40;;;;;;;136.30;40.60;;;;;;;9.06;76.41;99707.88;5035787;28;20025;-79
2021/01/04 03:30:06;;;;;;;97.40;38.03;;;;;;;8.82;76.50;99665.69;5034411;28;20395;-77
2021/01/04 03:32:31;;;;;;;78.93;35.78;;;;;;;9.09;76.49;99706.72;5035587;28;20052;-78
2021/01/04 03:34:57;;;;;;;78.53;33.38;;;;;;;8.35;76.18;99589.16;5035475;28;20025;-79
2021/01/04 03:37:22;;;;;;;79.82;33.47;;;;;;;8.40;76.67;99590.31;5034298;28;20364;-79
2021/01/04 03:39:47;;;;;;;88.40;33.10;;;;;;;9.01;76.93;99691.75;5035202;28;20029;-80
2021/01/04 03:42:13;;;;;;;85.05;34.10;;;;;;;8.76;76.56;99632.94;5035076;28;20033;-79
2021/01/04 03:44:40;;;;;;;86.32;30.73;;;;;;;9.07;76.79;99677.91;5035205;28;20064;-78
2021/01/04 03:47:05;;;;;;;72.30;30.38;;;;;;;8.49;76.54;99581.44;5034006;28;20037;-79
2021/01/04 03:49:31;;;;;;;76.40;30.23;;;;;;;8.32;77.05;99576.31;5035007;28;20029;-78
2021/01/04 03:51:58;;;;;;;86.63;30.38;;;;;;;9.09;76.96;99673.28;5035108;28;20033;-81
2021/01/04 03:54:25;;;;;;;76.30;29.33;;;;;;;8.54;76.84;99583.59;5033642;28;20029;-80
2021/01/04 03:56:50;;;;;;;66.97;31.08;;;;;;;8.77;76.75;99613.53;5035002;28;20056;-79
2021/01/04 03:59:17;;;;;;;73.63;31.15;;;;;;;9.11;77.20;99681.84;5033843;28;20146;-79
2021/01/04 04:01:53;;;;;;;75.00;29.23;;;;;;;9.11;77.00;99695.03;5035065;28;20440;-80
2021/01/04 04:04:19;;;;;;;77.47;28.13;;;;;;;8.95;76.88;99675.78;5034745;28;20033;-81
2021/01/04 04:06:45;;;;;;;55.45;26.27;;;;;;;8.85;76.86;99631.97;5035004;28;20028;-77
2021/01/04 04:09:12;;;;;;;58.78;27.20;;;;;;;8.39;76.72;99543.13;5034688;28;20029;-77
2021/01/04 04:11:38;;;;;;;68.15;26.02;;;;;;;8.62;76.87;99578.34;5034877;28;20029;-77
2021/01/04 04:14:04;;;;;;;58.13;25.77;;;;;;;9.17;76.72;99662.75;5034749;28;20327;-76
2021/01/04 04:16:30;;;;;;;103.35;29.40;;;;;;;9.16;77.05;99678.72;5034975;28;20420;-78
2021/01/04 04:18:56;;;;;;;69.03;25.55;;;;;;;8.99;77.07;99632.31;5034694;28;20138;-79
2021/01/04 04:21:21;;;;;;;83.75;26.80;;;;;;;8.98;77.16;99647.28;5034549;28;20104;-76
2021/01/04 04:23:46;;;;;;;68.55;25.27;;;;;;;9.16;76.92;99660.28;5034514;28;20052;-76
2021/01/04 04:26:17;;;;;;;57.03;23.95;;;;;;;9.13;77.18;99650.91;5033549;28;20029;-78
2021/01/04 04:28:43;;;;;;;89.03;27.90;;;;;;;9.14;77.32;99655.19;5034606;28;20167;-76
2021/01/04 04:31:10;;;;;;;75.93;29.23;;;;;;;8.77;77.42;99600.38;5034560;28;20135;-78
2021/01/04 04:33:35;;;;;;;70.07;27.10;;;;;;;9.17;77.15;99662.75;5034561;28;20344;-76
2021/01/04 04:36:00;;;;;;;77.22;28.33;;;;;;;9.19;77.14;99654.69;5033409;28;20032;-76
2021/01/04 04:38:26;;;;;;;80.90;27.83;;;;;;;9.18;77.31;99656.50;5034602;28;20344;-76
2021/01/04 04:40:51;;;;;;;59.70;28.02;;;;;;;9.10;77.18;99647.78;5034509;28;20036;-77
2021/01/04 04:43:45;;;;;;;69.72;27.88;;;;;;;8.95;77.42;99638.91;5034322;28;20112;-76
2021/01/04 04:46:50;;;;;;;74.22;28.60;;;;;;;9.14;77.60;99657.00;5034377;28;20052;-78
2021/01/04 04:49:21;;;;;;;49.80;23.60;;;;;;;9.22;77.17;99667.53;5033826;28;20057;-77
2021/01/04 04:52:11;;;;;;;73.63;26.83;;;;;;;9.18;77.12;99660.94;5034572;28;20112;-76
2021/01/04 04:54:51;;;;;;;51.72;23.55;;;;;;;8.69;77.13;99574.06;5033274;28;20025;-76
2021/01/04 04:57:36;;;;;;;53.10;22.65;;;;;;;9.23;77.55;99666.53;5034308;28;20163;-77
2021/01/04 05:00:26;;;;;;;58.55;23.83;;;;;;;9.24;77.67;99678.72;5033414;28;20037;-76
2021/01/04 05:03:08;;;;;;;87.35;26.38;;;;;;;9.26;77.33;99670.66;5038303;28;20025;-76
2021/01/04 05:05:43;;;;;;;74.70;26.58;;;;;;;9.11;77.10;99657.31;5037088;28;20056;-76
2021/01/04 05:08:15;;;;;;;66.63;26.17;;;;;;;8.88;77.28;99618.47;5037988;28;20367;-76
2021/01/04 05:10:44;;;;;;;128.30;32.65;;;;;;;8.93;77.28;99618.00;5038128;28;20053;-76
2021/01/04 05:13:26;;;;;;;64.22;27.02;;;;;;;8.93;77.38;99609.28;5037943;28;20033;-76
2021/01/04 05:16:07;;;;;;;78.82;28.05;;;;;;;9.22;77.71;99657.81;5038089;28;20036;-77
2021/01/04 05:18:38;;;;;;;67.15;27.88;;;;;;;9.22;77.63;99659.63;5037892;28;20344;-76
2021/01/04 05:21:36;;;;;;;67.38;28.83;;;;;;;9.20;77.54;99656.34;5037801;28;20037;-75
2021/01/04 05:24:36;;;;;;;61.63;27.48;;;;;;;9.15;77.76;99638.41;5034899;28;20128;-78
2021/01/04 05:27:26;;;;;;;66.38;27.50;;;;;;;9.25;77.84;99648.75;5037637;28;20130;-77
2021/01/04 05:29:57;;;;;;;59.83;26.25;;;;;;;9.26;77.74;99646.94;5036720;28;20036;-76
2021/01/04 05:32:48;;;;;;;63.35;27.45;;;;;;;8.75;77.25;99567.31;5037517;28;20112;-77
2021/01/04 05:35:16;;;;;;;54.47;25.25;;;;;;;9.11;77.54;99608.09;5037677;28;20348;-76
2021/01/04 05:38:03;;;;;;;71.18;29.35;;;;;;;9.28;77.60;99640.50;5037731;28;20025;-77
2021/01/04 05:40:56;;;;;;;81.25;28.15;;;;;;;9.27;77.49;99659.94;5037621;28;20097;-75
2021/01/04 05:43:27;;;;;;;104.15;30.70;;;;;;;9.27;77.68;99656.50;5036166;28;20045;-77
2021/01/04 05:46:05;;;;;;;120.50;31.88;;;;;;;9.12;77.54;99627.38;5037217;28;20511;-77
2021/01/04 05:49:06;;;;;;;75.25;25.65;;;;;;;9.30;77.63;99635.91;5036326;28;20124;-77
2021/01/04 05:51:33;;;;;;;60.47;26.45;;;;;;;9.32;77.36;99639.19;5037380;28;20033;-75
2021/01/04 05:53:59;;;;;;;71.50;29.42;;;;;;;8.75;77.10;99549.69;5037144;28;20029;-78
2021/01/04 05:56:28;;;;;;;82.10;35.13;;;;;;;9.32;77.33;99646.28;5037032;28;20052;-76
2021/01/04 05:59:09;;;;;;;65.70;30.60;;;;;;;9.29;77.33;99634.25;5036111;28;20125;-77
2021/01/04 06:01:36;;;;;;;99.72;33.47;;;;;;;9.04;77.34;99595.78;5037108;28;20451;-75
2021/01/04 06:04:07;;;;;;;75.72;31.50;;;;;;;9.08;77.33;99613.72;5036897;28;20060;-75
2021/01/04 06:06:54;;;;;;;67.78;30.73;;;;;;;9.31;77.29;99636.72;5035942;28;20029;-75
2021/01/04 06:09:21;;;;;;;96.63;33.40;;;;;;;9.18;77.55;99618.81;5035852;28;20053;-75
2021/01/04 06:11:59;;;;;;;87.57;33.75;;;;;;;9.31;77.41;99631.44;5036754;28;20377;-75
2021/01/04 06:14:27;;;;;;;72.45;29.92;;;;;;;9.32;77.42;99636.56;5035691;28;20033;-74
2021/01/04 06:17:02;;;;;;;67.13;30.02;;;;;;;9.09;77.41;99611.91;5036785;28;20380;-75
2021/01/04 06:19:32;;;;;;;56.50;26.75;;;;;;;8.93;77.45;99569.78;5036546;28;20029;-76
2021/01/04 06:22:06;;;;;;;62.90;29.55;;;;;;;9.35;77.15;99644.13;5035554;28;20025;-75
2021/01/04 06:24:34;;;;;;;63.00;29.67;;;;;;;9.36;77.60;99634.41;5037002;28;20049;-75
2021/01/04 06:27:09;;;;;;;81.30;34.50;;;;;;;9.35;77.31;99630.13;5036588;28;20096;-75
2021/01/04 06:29:42;;;;;;;79.68;31.50;;;;;;;9.32;77.62;99631.28;5036534;28;20022;-75
2021/01/04 06:32:20;;;;;;;60.00;30.90;;;;;;;9.36;77.25;99637.03;5036393;28;20029;-76
2021/01/04 06:34:52;;;;;;;61.92;30.02;;;;;;;8.88;77.14;99557.09;5036601;28;20037;-76
2021/01/04 06:37:20;;;;;;;66.70;31.08;;;;;;;9.06;77.47;99580.63;5036401;28;20398;-76
2021/01/04 06:40:14;;;;;;;60.92;30.52;;;;;;;9.16;77.46;99597.88;5035298;28;20033;-75
2021/01/04 06:42:41;;;;;;;74.68;30.85;;;;;;;8.92;76.88;99558.44;5034437;28;20179;-76
2021/01/04 06:45:29;;;;;;;80.43;31.98;;;;;;;9.39;77.16;99632.25;5031409;28;20029;-75
2021/01/04 06:48:14;;;;;;;61.30;27.95;;;;;;;9.15;77.08;99593.63;5034231;28;20117;-76
2021/01/04 06:51:10;;;;;;;58.38;27.85;;;;;;;9.37;77.31;99626.34;5049085;28;20036;-76
2021/01/04 06:53:51;;;;;;;56.10;30.88;;;;;;;9.41;77.24;99627.63;5039115;28;20075;-75
2021/01/04 06:56:34;;;;;;;51.25;30.08;;;;;;;9.30;77.17;99592.94;5034039;28;20459;-75
2021/01/04 06:59:21;;;;;;;56.13;31.38;;;;;;;9.43;77.05;99627.47;5028519;28;20037;-76
2021/01/04 07:02:17;;;;;;;62.63;33.72;;;;;;;8.95;77.18;99552.00;5034858;28;20125;-76
2021/01/04 07:05:07;;;;;;;59.20;33.45;;;;;;;9.48;77.27;99633.06;5035709;28;20340;-75
2021/01/04 07:07:38;;;;;;;63.15;31.02;;;;;;;9.55;76.96;99624.31;5027588;28;20036;-77
2021/01/04 07:10:19;;;;;;;60.93;28.87;;;;;;;9.58;76.82;99633.69;5035479;28;20048;-75
2021/01/04 07:13:06;;;;;;;63.40;31.45;;;;;;;9.59;77.20;99634.50;5033900;28;20064;-75
2021/01/04 07:15:32;;;;;;;62.95;30.90;;;;;;;9.59;77.42;99630.06;5034370;28;20443;-77
2021/01/04 07:18:35;;;;;;;56.78;29.60;;;;;;;9.65;77.21;99624.13;5035013;28;20052;-75
2021/01/04 07:21:13;;;;;;;66.93;34.45;;;;;;;9.69;77.12;99622.81;5030825;28;20411;-77
2021/01/04 07:24:09;;;;;;;59.50;32.88;;;;;;;9.73;77.36;99628.56;5034510;28;20489;-77
2021/01/04 07:26:56;;;;;;;60.90;30.52;;;;;;;9.74;77.33;99609.94;5035332;28;20027;-76
2021/01/04 07:29:39;;;;;;;53.42;29.50;;;;;;;9.82;77.25;99603.81;5032285;28;20029;-75
2021/01/04 07:32:44;;;;;;;50.10;28.63;;;;;;;9.87;77.34;99614.66;5032744;28;20025;-75
2021/01/04 07:35:57;;;;;;;61.70;31.23;;;;;;;9.72;76.82;99577.66;5027418;28;20025;-75
2021/01/04 07:38:39;;;;;;;41.92;26.40;;;;;;;9.93;76.96;99603.44;5031719;28;20064;-76
2021/01/04 07:41:18;;;;;;;45.28;27.65;;;;;;;9.51;76.82;99525.47;5032061;28;20072;-75
2021/01/04 07:43:55;;;;;;;44.92;26.48;;;;;;;10.05;76.62;99603.84;5033236;28;20452;-75
2021/01/04 07:46:57;;;;;;;49.75;27.50;;;;;;;9.99;77.06;99597.47;5033814;28;20029;-74
2021/01/04 07:49:28;;;;;;;38.65;23.60;;;;;;;10.13;77.04;99609.09;5034890;28;20112;-75
2021/01/04 07:52:25;;;;;;;47.20;24.73;;;;;;;10.13;77.00;99609.09;5032189;28;20365;-74
2021/01/04 07:55:08;;;;;;;41.10;25.33;;;;;;;10.01;77.46;99590.19;5034756;28;20073;-75
2021/01/04 07:58:07;;;;;;;43.33;26.30;;;;;;;10.22;76.91;99605.44;5031443;28;20033;-75
2021/01/04 08:00:38;;;;;;;51.22;28.25;;;;;;;10.27;76.90;99600.47;4981200;28;20061;-75
2021/01/04 08:03:25;;;;;;;43.28;26.40;;;;;;;10.32;76.97;99600.75;5006742;28;23063;-75
2021/01/04 08:06:01;;;;;;;39.97;23.83;;;;;;;10.34;76.48;99595.31;5009736;28;20402;-74
2021/01/04 08:08:41;;;;;;;45.53;26.55;;;;;;;10.39;76.99;99606.97;5012201;28;20489;-75
2021/01/04 08:11:32;;;;;;;53.17;31.73;;;;;;;10.43;76.89;99599.56;5014243;28;20033;-75
2021/01/04 08:14:34;;;;;;;46.63;29.20;;;;;;;10.34;76.82;99593.50;5009093;28;20030;-76
2021/01/04 08:17:14;;;;;;;50.33;28.58;;;;;;;9.93;77.07;99512.94;5012800;28;20033;-74
2021/01/04 08:19:43;;;;;;;46.38;28.67;;;;;;;10.42;76.78;99579.44;5014542;28;20030;-75
2021/01/04 08:22:41;;;;;;;45.92;25.85;;;;;;;10.49;76.75;99583.03;5000536;28;20424;-75
2021/01/04 08:25:12;;;;;;;45.20;26.55;;;;;;;10.24;76.27;99529.56;5010210;28;20041;-75
2021/01/04 08:27:49;;;;;;;44.15;27.08;;;;;;;10.49;76.38;99569.81;5006362;28;20045;-75
2021/01/04 08:30:29;;;;;;;39.72;25.27;;;;;;;10.47;75.78;99571.81;4997288;28;20399;-75
2021/01/04 08:33:06;;;;;;;37.92;24.98;;;;;;;10.48;75.90;99560.25;5013440;28;20348;-75
2021/01/04 08:35:42;;;;;;;43.35;26.77;;;;;;;10.49;75.60;99548.69;5005739;28;20029;-80
2021/01/04 08:38:19;;;;;;;38.03;24.38;;;;;;;10.54;75.59;99551.63;5000933;28;20089;-77
2021/01/04 08:40:56;;;;;;;37.55;25.55;;;;;;;10.59;75.62;99548.47;5015419;28;20044;-74
2021/01/04 08:43:52;;;;;;;42.83;25.20;;;;;;;10.67;75.59;99546.56;5015640;28;20141;-75
2021/01/04 08:46:23;;;;;;;41.28;26.48;;;;;;;10.74;75.86;99531.66;5002897;28;20045;-76
2021/01/04 08:48:50;;;;;;;43.15;24.83;;;;;;;10.71;75.56;99524.09;5006638;28;20030;-75
2021/01/04 08:51:27;;;;;;;40.53;25.10;;;;;;;10.88;75.20;99532.66;5008553;28;20046;-76
2021/01/04 08:53:56;;;;;;;34.92;23.00;;;;;;;10.96;75.58;99531.78;5001779;28;20034;-74
2021/01/04 08:56:21;;;;;;;35.83;21.25;;;;;;;10.99;75.77;99531.41;5006188;28;20033;-74
2021/01/04 08:58:47;;;;;;;33.90;20.08;;;;;;;11.06;75.52;99527.03;5000789;28;20033;-74
2021/01/04 09:01:13;;;;;;;28.48;18.27;;;;;;;11.06;75.91;99524.41;5007592;28;20500;-75
2021/01/04 09:03:40;;;;;;;30.13;19.95;;;;;;;11.08;75.00;99530.31;5017990;28;20137;-75
2021/01/04 09:06:25;;;;;;;33.03;20.38;;;;;;;11.13;75.41;99526.13;5018318;28;20025;-75
2021/01/04 09:08:56;;;;;;;32.85;20.02;;;;;;;11.02;75.74;99492.25;5011685;28;20353;-75
2021/01/04 09:11:22;;;;;;;33.75;20.55;;;;;;;10.63;75.33;99420.38;5014712;28;20433;-75
2021/01/04 09:13:49;;;;;;;39.08;21.30;;;;;;;11.21;75.88;99521.78;5017561;28;20040;-74
2021/01/04 09:16:29;;;;;;;33.58;20.25;;;;;;;10.91;75.73;99458.34;5014020;28;20029;-78
2021/01/04 09:19:27;;;;;;;36.13;21.98;;;;;;;10.85;75.33;99435.31;5010180;28;20026;-77
2021/01/04 09:22:07;;;;;;;33.85;22.27;;;;;;;11.18;75.39;99478.06;5003191;28;20093;-76
2021/01/04 09:24:35;;;;;;;34.92;20.67;;;;;;;11.09;75.39;99461.44;5013792;28;20030;-75
2021/01/04 09:27:13;;;;;;;33.08;20.70;;;;;;;11.34;75.07;99488.44;5012529;28;20116;-79
2021/01/04 09:29:46;;;;;;;36.75;20.77;;;;;;;11.41;75.00;99476.09;5013125;28;20056;-78
2021/01/04 09:32:16;;;;;;;28.92;18.75;;;;;;;11.51;74.96;99473.16;5016891;28;20083;-75
2021/01/04 09:34:41;;;;;;;29.95;18.17;;;;;;;11.50;74.80;99466.25;5013371;28;20032;-76
2021/01/04 09:37:10;;;;;;;33.00;18.70;;;;;;;11.53;74.27;99465.88;5015001;28;20030;-76
2021/01/04 09:39:38;;;;;;;25.95;16.83;;;;;;;11.53;74.67;99459.75;4998219;28;20026;-76
2021/01/04 09:42:06;;;;;;;28.63;17.85;;;;;;;11.20;74.90;99396.75;5025978;28;20375;-75
2021/01/04 09:44:32;;;;;;;29.10;16.58;;;;;;;11.45;74.42;99429.78;5016900;28;20416;-77
2021/01/04 09:47:07;;;;;;;25.52;15.30;;;;;;;11.67;74.03;99446.50;5017820;28;20037;-75
2021/01/04 09:49:38;;;;;;;29.13;15.60;;;;;;;11.57;74.07;99408.16;5014957;28;20418;-76
2021/01/04 09:52:42;;;;;;;32.25;19.98;;;;;;;11.77;74.63;99433.81;5019482;28;20352;-74
2021/01/04 09:55:11;;;;;;;35.95;22.85;;;;;;;11.36;74.56;99350.78;4985062;28;20461;-76
2021/01/04 09:57:42;;;;;;;38.58;22.67;;;;;;;11.43;73.45;99355.13;5013149;28;20184;-77
2021/01/04 10:00:21;;;;;;;38.10;22.40;;;;;;;11.84;74.71;99402.13;5017021;28;20349;-75
2021/01/04 10:02:47;;;;;;;32.65;19.20;;;;;;;11.82;73.81;99388.28;5017919;28;20033;-75
2021/01/04 10:05:15;;;;;;;30.85;19.55;;;;;;;11.88;73.72;99395.47;5011674;28;20460;-76
2021/01/04 10:07:42;;;;;;;31.60;17.48;;;;;;;11.98;73.60;99382.75;4997868;28;20034;-76
2021/01/04 10:10:12;;;;;;;21.60;15.63;;;;;;;12.05;73.86;99388.91;4999349;28;20037;-75
2021/01/04 10:12:38;;;;;;;28.95;17.40;;;;;;;11.89;73.33;99357.44;4994348;28;20041;-77
2021/01/04 10:15:15;;;;;;;27.48;16.25;;;;;;;11.95;73.10;99346.09;5023301;28;20375;-76
2021/01/04 10:17:44;;;;;;;27.73;15.90;;;;;;;11.77;72.75;99308.66;5003522;28;20448;-76
2021/01/04 10:20:37;;;;;;;33.50;17.48;;;;;;;12.05;73.61;99341.28;5004939;28;20026;-76
2021/01/04 10:23:04;;;;;;;29.20;16.27;;;;;;;12.01;73.32;99328.63;4998891;28;20592;-76
2021/01/04 10:25:42;;;;;;;30.15;16.52;;;;;;;12.30;72.54;99356.72;5004401;28;20081;-76
2021/01/04 10:28:08;;;;;;;28.25;14.82;;;;;;;11.97;72.60;99291.16;4995962;28;20398;-77
2021/01/04 10:30:33;;;;;;;23.65;13.70;;;;;;;11.99;72.67;99275.91;5001531;28;20121;-77
2021/01/04 10:33:18;;;;;;;27.55;15.55;;;;;;;12.26;72.18;99313.94;4999796;28;20073;-76
2021/01/04 10:35:43;;;;;;;27.58;13.90;;;;;;;11.88;72.42;99241.22;5005354;28;20160;-77
2021/01/04 10:38:21;;;;;;;22.83;13.32;;;;;;;12.43;72.24;99332.97;5004853;28;20117;-76
2021/01/04 10:40:49;;;;;;;24.60;13.27;;;;;;;12.34;72.03;99313.78;5008488;28;20428;-77
2021/01/04 10:43:21;;;;;;;21.23;12.18;;;;;;;12.40;72.13;99333.38;5011089;28;20026;-76
2021/01/04 10:45:46;;;;;;;;;;;;;;;12.34;72.22;99312.97;5017030;28;20049;-75
2021/01/04 10:48:16;;;;;;;24.08;12.70;;;;;;;11.74;71.77;99204.06;5013374;28;19969;-76
2021/01/04 10:50:44;;;;;;;21.75;11.77;;;;;;;12.43;71.86;99289.81;4997938;28;20342;-75
2021/01/04 10:53:24;;;;;;;21.50;13.50;;;;;;;12.46;71.73;99273.53;5013163;28;20437;-76
2021/01/04 10:56:01;;;;;;;24.02;12.60;;;;;;;12.41;71.68;99255.56;5013917;28;20034;-76
2021/01/04 10:58:31;;;;;;;32.13;14.48;;;;;;;12.54;71.83;99260.13;5000952;28;20360;-76
2021/01/04 11:01:09;;;;;;;31.35;15.00;;;;;;;12.53;72.09;99248.69;5009038;28;20022;-75
2021/01/04 11:03:35;;;;;;;22.10;12.52;;;;;;;12.44;71.31;99220.75;5003692;28;20708;-75
2021/01/04 11:06:00;;;;;;;24.67;14.77;;;;;;;12.63;71.41;99243.03;5007508;28;20030;-75
2021/01/04 11:08:32;;;;;;;28.15;13.10;;;;;;;12.33;71.31;99185.09;5013154;28;20033;-76
2021/01/04 11:10:57;;;;;;;26.00;12.70;;;;;;;12.67;71.42;99223.94;5011578;28;20050;-76
2021/01/04 11:13:32;;;;;;;25.38;12.65;;;;;;;12.48;71.11;99187.56;5010578;28;20072;-76
2021/01/04 11:16:11;;;;;;;24.08;13.45;;;;;;;12.48;70.91;99192.88;4997254;28;20509;-76
2021/01/04 11:18:52;;;;;;;23.15;12.57;;;;;;;12.63;70.61;99208.59;4997357;28;20033;-76
2021/01/04 11:21:31;;;;;;;21.02;12.23;;;;;;;12.71;70.78;99214.56;4996203;28;20425;-76
2021/01/04 11:23:56;;;;;;;22.88;12.02;;;;;;;12.56;71.00;99174.16;4996854;28;20092;-77
2021/01/04 11:26:22;;;;;;;21.77;12.20;;;;;;;12.76;70.59;99200.72;4995801;28;20038;-78
2021/01/04 11:28:47;;;;;;;21.85;11.32;;;;;;;12.78;70.69;99198.69;4995888;28;20120;-76
2021/01/04 11:31:12;;;;;;;20.55;11.98;;;;;;;12.65;70.59;99164.22;4998570;28;20033;-81
2021/01/04 11:33:38;;;;;;;25.88;14.45;;;;;;;12.39;70.16;99131.34;5005376;28;20437;-80
2021/01/04 11:36:03;;;;;;;26.60;15.00;;;;;;;12.60;70.58;99137.50;5002623;28;20035;-79
2021/01/04 11:38:29;;;;;;;25.15;13.20;;;;;;;12.85;70.17;99164.25;5019717;28;20217;-78
2021/01/04 11:40:55;;;;;;;25.73;15.25;;;;;;;12.49;70.24;99103.66;5009062;28;20026;-79
2021/01/04 11:43:20;;;;;;;24.02;13.73;;;;;;;12.21;69.71;99053.50;5002597;28;20504;-80
2021/01/04 11:45:46;;;;;;;24.30;13.95;;;;;;;12.81;70.07;99157.72;5015544;28;20029;-79
2021/01/04 11:48:12;;;;;;;24.50;13.48;;;;;;;12.77;70.22;99132.66;5008143;28;20050;-79
2021/01/04 11:50:37;;;;;;;27.23;14.52;;;;;;;12.72;69.75;99127.97;5013553;28;20038;-76
2021/01/04 11:53:02;;;;;;;24.15;13.80;;;;;;;12.36;69.77;99062.09;5012769;28;20037;-77
2021/01/04 11:55:28;;;;;;;26.85;14.38;;;;;;;12.63;70.09;99122.06;5017634;28;20030;-79
2021/01/04 11:57:53;;;;;;;30.17;16.90;;;;;;;12.38;69.88;99074.09;5014817;28;20042;-77
2021/01/04 12:00:20;;;;;;;36.53;20.17;;;;;;;12.51;70.12;99091.03;5014194;28;20042;-78
2021/01/04 12:02:45;;;;;;;30.55;18.00;;;;;;;12.71;70.16;99127.16;5010810;28;20029;-78
2021/01/04 12:05:13;;;;;;;33.92;18.50;;;;;;;12.64;70.35;99107.78;5014299;28;20025;-81
2021/01/04 12:07:38;;;;;;;31.92;17.88;;;;;;;12.67;69.90;99133.06;5021004;28;20121;-77